DLH8M EDDH-EDDM
Flight info
| Callsign | DLH8M |
|---|---|
| Flight time | 1h 1m |
| Altitude | 35000 |
| Route | AMLUH2G AMLUH M852 DENIX DCT ZUCKA DCT SODRO/N0417F310 T703 LULAR T105 LANDU LANDU2B |
| Aircraft | A320/M-SDE2E3FGIJ1LORWXYZ/HB1 |
Departure
| Time | 2026-05-07 16:25 |
|---|---|
| Airport | Hamburg Helmut Schmidt Airport (EDDH) |
Arrival
| Time | 2026-05-07 17:27 |
|---|---|
| Airport | Munich Airport (EDDM) |
| Time | Latitude | Longitude | Altitude | Speed | Heading |
|---|---|---|---|---|---|
| 2026-05-07 15:48 | 53.63168 | 10.00368 | 49 ft | 0 kts | 86° |
| 2026-05-07 15:49 | 53.63112 | 10.00381 | 47 ft | 0 kts | 87° |
| 2026-05-07 16:17 | 53.63112 | 10.00375 | 48 ft | 3 kts | 87° |
| 2026-05-07 16:18 | 53.63111 | 10.00331 | 44 ft | 4 kts | 87° |
| 2026-05-07 16:18 | 53.63109 | 10.00285 | 44 ft | 4 kts | 87° |
| 2026-05-07 16:18 | 53.63108 | 10.00249 | 44 ft | 4 kts | 92° |
| 2026-05-07 16:18 | 53.63113 | 10.00207 | 46 ft | 4 kts | 127° |
| 2026-05-07 16:19 | 53.63127 | 10.00190 | 46 ft | 0 kts | 175° |
| 2026-05-07 16:21 | 53.63122 | 10.00191 | 44 ft | 2 kts | 175° |
| 2026-05-07 16:21 | 53.63090 | 10.00193 | 47 ft | 7 kts | 181° |
| 2026-05-07 16:21 | 53.63044 | 10.00156 | 48 ft | 7 kts | 212° |
| 2026-05-07 16:21 | 53.63005 | 10.00116 | 46 ft | 6 kts | 212° |
| 2026-05-07 16:22 | 53.62973 | 10.00081 | 48 ft | 5 kts | 212° |
| 2026-05-07 16:22 | 53.62947 | 10.00053 | 48 ft | 4 kts | 215° |
| 2026-05-07 16:22 | 53.62929 | 10.00019 | 48 ft | 4 kts | 234° |
| 2026-05-07 16:22 | 53.62917 | 9.99980 | 48 ft | 3 kts | 243° |
| 2026-05-07 16:23 | 53.62907 | 9.99948 | 45 ft | 3 kts | 243° |
| 2026-05-07 16:23 | 53.62899 | 9.99922 | 48 ft | 0 kts | 243° |
| 2026-05-07 16:24 | 53.62898 | 9.99920 | 48 ft | 1 kts | 243° |
| 2026-05-07 16:24 | 53.62879 | 9.99856 | 47 ft | 10 kts | 243° |
| 2026-05-07 16:24 | 53.62859 | 9.99771 | 44 ft | 4 kts | 271° |
| 2026-05-07 16:24 | 53.62875 | 9.99738 | 45 ft | 4 kts | 326° |
| 2026-05-07 16:25 | 53.62993 | 9.99638 | 44 ft | 49 kts | 333° |
| 2026-05-07 16:25 | 53.63518 | 9.99182 | 47 ft | 117 kts | 333° |
| 2026-05-07 16:25 | 53.64404 | 9.98417 | 85 ft | 165 kts | 338° |
| 2026-05-07 16:25 | 53.65413 | 9.97540 | 836 ft | 162 kts | 336° |
| 2026-05-07 16:26 | 53.66422 | 9.96657 | 1563 ft | 171 kts | 337° |
| 2026-05-07 16:26 | 53.67551 | 9.95693 | 2014 ft | 193 kts | 337° |
| 2026-05-07 16:26 | 53.68851 | 9.94757 | 2399 ft | 211 kts | 353° |
| 2026-05-07 16:26 | 53.69836 | 9.94637 | 2931 ft | 210 kts | 4° |
| 2026-05-07 16:27 | 53.71780 | 9.94716 | 4131 ft | 211 kts | 12° |
| 2026-05-07 16:27 | 53.73069 | 9.95797 | 4971 ft | 210 kts | 47° |
| 2026-05-07 16:27 | 53.73763 | 9.97960 | 5754 ft | 214 kts | 77° |
| 2026-05-07 16:27 | 53.74033 | 10.00435 | 6636 ft | 215 kts | 79° |
| 2026-05-07 16:28 | 53.74084 | 10.02977 | 7437 ft | 221 kts | 97° |
| 2026-05-07 16:28 | 53.73602 | 10.05544 | 7921 ft | 243 kts | 117° |
| 2026-05-07 16:28 | 53.72721 | 10.08152 | 8320 ft | 267 kts | 119° |
| 2026-05-07 16:28 | 53.71773 | 10.10938 | 9022 ft | 278 kts | 119° |
| 2026-05-07 16:29 | 53.70803 | 10.13805 | 9869 ft | 284 kts | 119° |
| 2026-05-07 16:29 | 53.69767 | 10.16721 | 10448 ft | 299 kts | 127° |
| 2026-05-07 16:29 | 53.68255 | 10.19319 | 10746 ft | 322 kts | 143° |
| 2026-05-07 16:29 | 53.66292 | 10.21279 | 11343 ft | 333 kts | 156° |
| 2026-05-07 16:30 | 53.64074 | 10.22516 | 12110 ft | 337 kts | 166° |
| 2026-05-07 16:30 | 53.61795 | 10.23534 | 12904 ft | 341 kts | 165° |
| 2026-05-07 16:30 | 53.59524 | 10.24582 | 13667 ft | 345 kts | 165° |
| 2026-05-07 16:30 | 53.57197 | 10.25671 | 14364 ft | 349 kts | 165° |
| 2026-05-07 16:31 | 53.54844 | 10.26771 | 15033 ft | 353 kts | 165° |
| 2026-05-07 16:31 | 53.52463 | 10.27877 | 15713 ft | 356 kts | 165° |
| 2026-05-07 16:31 | 53.50058 | 10.28985 | 16381 ft | 360 kts | 165° |
| 2026-05-07 16:31 | 53.47629 | 10.30096 | 17051 ft | 364 kts | 165° |
| 2026-05-07 16:32 | 53.45177 | 10.31212 | 17720 ft | 367 kts | 166° |
| 2026-05-07 16:32 | 53.42694 | 10.32342 | 18349 ft | 371 kts | 166° |
| 2026-05-07 16:32 | 53.40188 | 10.33478 | 18916 ft | 375 kts | 166° |
| 2026-05-07 16:32 | 53.37657 | 10.34619 | 19486 ft | 378 kts | 166° |
| 2026-05-07 16:33 | 53.35105 | 10.35765 | 20064 ft | 381 kts | 166° |
| 2026-05-07 16:33 | 53.32540 | 10.36913 | 20640 ft | 383 kts | 166° |
| 2026-05-07 16:33 | 53.29949 | 10.38071 | 21203 ft | 386 kts | 167° |
| 2026-05-07 16:33 | 53.27347 | 10.39232 | 21744 ft | 389 kts | 166° |
| 2026-05-07 16:34 | 53.24726 | 10.40404 | 22281 ft | 392 kts | 166° |
| 2026-05-07 16:34 | 53.22084 | 10.41585 | 22825 ft | 395 kts | 166° |
| 2026-05-07 16:34 | 53.19419 | 10.42775 | 23358 ft | 397 kts | 166° |
| 2026-05-07 16:34 | 53.16739 | 10.43970 | 23837 ft | 400 kts | 166° |
| 2026-05-07 16:35 | 53.14042 | 10.45170 | 24265 ft | 403 kts | 166° |
| 2026-05-07 16:35 | 53.11314 | 10.46307 | 24690 ft | 405 kts | 168° |
| 2026-05-07 16:35 | 53.08551 | 10.47274 | 25108 ft | 407 kts | 170° |
| 2026-05-07 16:35 | 53.05756 | 10.48127 | 25528 ft | 409 kts | 171° |
| 2026-05-07 16:36 | 53.02942 | 10.48927 | 25928 ft | 412 kts | 171° |
| 2026-05-07 16:36 | 53.00111 | 10.49722 | 26348 ft | 414 kts | 171° |
| 2026-05-07 16:36 | 52.97265 | 10.50545 | 26745 ft | 417 kts | 171° |
| 2026-05-07 16:36 | 52.94401 | 10.51406 | 27146 ft | 419 kts | 170° |
| 2026-05-07 16:37 | 52.91527 | 10.52295 | 27526 ft | 422 kts | 170° |
| 2026-05-07 16:37 | 52.88632 | 10.53198 | 27907 ft | 424 kts | 171° |
| 2026-05-07 16:37 | 52.85759 | 10.54095 | 28284 ft | 427 kts | 170° |
| 2026-05-07 16:37 | 52.82834 | 10.55006 | 28659 ft | 429 kts | 170° |
| 2026-05-07 16:38 | 52.79849 | 10.55935 | 29035 ft | 432 kts | 170° |
| 2026-05-07 16:38 | 52.76929 | 10.56839 | 29395 ft | 434 kts | 169° |
| 2026-05-07 16:38 | 52.73950 | 10.57756 | 29755 ft | 436 kts | 170° |
| 2026-05-07 16:38 | 52.70958 | 10.58675 | 30084 ft | 439 kts | 170° |
| 2026-05-07 16:39 | 52.67948 | 10.59593 | 30395 ft | 441 kts | 170° |
| 2026-05-07 16:39 | 52.64920 | 10.60515 | 30685 ft | 443 kts | 170° |
| 2026-05-07 16:39 | 52.61881 | 10.61443 | 30959 ft | 445 kts | 170° |
| 2026-05-07 16:39 | 52.58829 | 10.62375 | 31234 ft | 447 kts | 170° |
| 2026-05-07 16:40 | 52.55759 | 10.63310 | 31504 ft | 449 kts | 170° |
| 2026-05-07 16:40 | 52.52676 | 10.64245 | 31801 ft | 450 kts | 170° |
| 2026-05-07 16:40 | 52.49602 | 10.65180 | 32207 ft | 449 kts | 170° |
| 2026-05-07 16:40 | 52.46531 | 10.66113 | 32588 ft | 448 kts | 170° |
| 2026-05-07 16:41 | 52.43463 | 10.67044 | 32956 ft | 448 kts | 170° |
| 2026-05-07 16:41 | 52.40397 | 10.67970 | 33346 ft | 447 kts | 170° |
| 2026-05-07 16:41 | 52.37337 | 10.68886 | 33731 ft | 447 kts | 170° |
| 2026-05-07 16:41 | 52.34277 | 10.69803 | 34112 ft | 447 kts | 169° |
| 2026-05-07 16:42 | 52.31219 | 10.70726 | 34384 ft | 447 kts | 169° |
| 2026-05-07 16:42 | 52.28167 | 10.71646 | 34619 ft | 446 kts | 169° |
| 2026-05-07 16:42 | 52.25114 | 10.72566 | 34851 ft | 445 kts | 170° |
| 2026-05-07 16:42 | 52.22107 | 10.73472 | 35042 ft | 445 kts | 170° |
| 2026-05-07 16:43 | 52.19075 | 10.74382 | 35103 ft | 440 kts | 170° |
| 2026-05-07 16:43 | 52.13089 | 10.76168 | 35100 ft | 435 kts | 170° |
| 2026-05-07 16:44 | 52.07130 | 10.77929 | 35093 ft | 435 kts | 170° |
| 2026-05-07 16:44 | 52.01180 | 10.79700 | 35085 ft | 435 kts | 170° |
| 2026-05-07 16:45 | 51.96187 | 10.81189 | 35085 ft | 435 kts | 170° |
| 2026-05-07 16:45 | 51.90277 | 10.82942 | 35086 ft | 435 kts | 170° |
| 2026-05-07 16:46 | 51.84322 | 10.84699 | 35081 ft | 435 kts | 170° |
| 2026-05-07 16:46 | 51.78371 | 10.86448 | 35080 ft | 434 kts | 170° |
| 2026-05-07 16:47 | 51.72423 | 10.88191 | 35071 ft | 434 kts | 171° |
| 2026-05-07 16:47 | 51.66557 | 10.90439 | 35065 ft | 435 kts | 159° |
| 2026-05-07 16:48 | 51.61087 | 10.94644 | 35067 ft | 435 kts | 155° |
| 2026-05-07 16:48 | 51.55644 | 10.98938 | 35067 ft | 436 kts | 155° |
| 2026-05-07 16:49 | 51.50198 | 11.03207 | 35065 ft | 436 kts | 155° |
| 2026-05-07 16:49 | 51.44777 | 11.07465 | 35062 ft | 436 kts | 155° |
| 2026-05-07 16:50 | 51.39325 | 11.11745 | 35069 ft | 436 kts | 155° |
| 2026-05-07 16:50 | 51.33870 | 11.16007 | 35071 ft | 436 kts | 155° |
| 2026-05-07 16:51 | 51.28410 | 11.20244 | 35069 ft | 436 kts | 155° |
| 2026-05-07 16:51 | 51.22961 | 11.24476 | 35055 ft | 436 kts | 155° |
| 2026-05-07 16:52 | 51.17499 | 11.28708 | 35052 ft | 437 kts | 155° |
| 2026-05-07 16:52 | 51.12030 | 11.32929 | 35050 ft | 437 kts | 155° |
| 2026-05-07 16:53 | 51.06548 | 11.37144 | 35052 ft | 437 kts | 155° |
| 2026-05-07 16:53 | 51.01101 | 11.41330 | 35047 ft | 437 kts | 155° |
| 2026-05-07 16:54 | 50.95585 | 11.45562 | 35046 ft | 437 kts | 155° |
| 2026-05-07 16:54 | 50.90105 | 11.49755 | 35047 ft | 437 kts | 155° |
| 2026-05-07 16:55 | 50.84619 | 11.53940 | 35041 ft | 438 kts | 155° |
| 2026-05-07 16:55 | 50.79167 | 11.58091 | 35043 ft | 438 kts | 155° |
| 2026-05-07 16:56 | 50.73673 | 11.62256 | 35032 ft | 438 kts | 155° |
| 2026-05-07 16:56 | 50.65414 | 11.68495 | 35038 ft | 439 kts | 155° |
| 2026-05-07 16:57 | 50.59900 | 11.72647 | 35030 ft | 439 kts | 156° |
| 2026-05-07 16:57 | 50.54384 | 11.76798 | 35022 ft | 440 kts | 156° |
| 2026-05-07 16:58 | 50.48859 | 11.80933 | 35022 ft | 440 kts | 156° |
| 2026-05-07 16:58 | 50.43310 | 11.84990 | 35019 ft | 440 kts | 158° |
| 2026-05-07 16:59 | 50.37685 | 11.88777 | 35019 ft | 440 kts | 159° |
| 2026-05-07 16:59 | 50.32039 | 11.92493 | 35019 ft | 440 kts | 159° |
| 2026-05-07 17:00 | 50.26444 | 11.96236 | 35022 ft | 440 kts | 158° |
| 2026-05-07 17:00 | 50.20832 | 12.00028 | 35018 ft | 439 kts | 158° |
| 2026-05-07 17:01 | 50.15221 | 12.03814 | 35019 ft | 439 kts | 159° |
| 2026-05-07 17:01 | 50.09609 | 12.07565 | 35023 ft | 439 kts | 159° |
| 2026-05-07 17:02 | 50.04003 | 12.11306 | 35028 ft | 438 kts | 159° |
| 2026-05-07 17:02 | 49.98394 | 12.15044 | 35024 ft | 439 kts | 159° |
| 2026-05-07 17:03 | 49.92775 | 12.18774 | 35023 ft | 439 kts | 159° |
| 2026-05-07 17:03 | 49.87159 | 12.22506 | 35025 ft | 439 kts | 159° |
| 2026-05-07 17:04 | 49.81528 | 12.26223 | 34740 ft | 440 kts | 159° |
| 2026-05-07 17:04 | 49.78725 | 12.28073 | 34302 ft | 437 kts | 159° |
| 2026-05-07 17:04 | 49.75971 | 12.29885 | 33701 ft | 435 kts | 159° |
| 2026-05-07 17:05 | 49.73214 | 12.31770 | 33165 ft | 433 kts | 155° |
| 2026-05-07 17:05 | 49.70647 | 12.34192 | 32614 ft | 432 kts | 145° |
| 2026-05-07 17:05 | 49.68258 | 12.36981 | 32058 ft | 429 kts | 144° |
| 2026-05-07 17:05 | 49.65887 | 12.39764 | 31525 ft | 426 kts | 144° |
| 2026-05-07 17:06 | 49.63535 | 12.42521 | 30996 ft | 423 kts | 144° |
| 2026-05-07 17:06 | 49.61192 | 12.45256 | 30473 ft | 421 kts | 144° |
| 2026-05-07 17:06 | 49.58863 | 12.47962 | 29925 ft | 418 kts | 143° |
| 2026-05-07 17:06 | 49.56546 | 12.50651 | 29383 ft | 415 kts | 144° |
| 2026-05-07 17:07 | 49.54254 | 12.53312 | 28892 ft | 411 kts | 144° |
| 2026-05-07 17:07 | 49.51981 | 12.55950 | 28404 ft | 408 kts | 144° |
| 2026-05-07 17:07 | 49.49724 | 12.58569 | 27919 ft | 404 kts | 144° |
| 2026-05-07 17:07 | 49.47486 | 12.61161 | 27464 ft | 401 kts | 144° |
| 2026-05-07 17:08 | 49.45269 | 12.63728 | 27003 ft | 398 kts | 145° |
| 2026-05-07 17:08 | 49.43112 | 12.66362 | 26559 ft | 396 kts | 139° |
| 2026-05-07 17:08 | 49.41073 | 12.69199 | 26069 ft | 392 kts | 145° |
| 2026-05-07 17:08 | 49.38753 | 12.71315 | 25575 ft | 386 kts | 160° |
| 2026-05-07 17:09 | 49.36208 | 12.72471 | 25092 ft | 379 kts | 174° |
| 2026-05-07 17:09 | 49.33607 | 12.72646 | 24623 ft | 371 kts | 188° |
| 2026-05-07 17:09 | 49.31109 | 12.71875 | 24160 ft | 364 kts | 202° |
| 2026-05-07 17:09 | 49.28802 | 12.70349 | 23690 ft | 360 kts | 208° |
| 2026-05-07 17:10 | 49.26540 | 12.68732 | 23165 ft | 358 kts | 208° |
| 2026-05-07 17:10 | 49.24288 | 12.67136 | 22657 ft | 355 kts | 207° |
| 2026-05-07 17:10 | 49.22079 | 12.65577 | 22168 ft | 353 kts | 207° |
| 2026-05-07 17:10 | 49.19858 | 12.64003 | 21707 ft | 351 kts | 208° |
| 2026-05-07 17:11 | 49.17657 | 12.62429 | 21246 ft | 348 kts | 208° |
| 2026-05-07 17:11 | 49.15468 | 12.60858 | 20782 ft | 346 kts | 208° |
| 2026-05-07 17:11 | 49.13295 | 12.59296 | 20332 ft | 345 kts | 208° |
| 2026-05-07 17:11 | 49.11128 | 12.57740 | 19886 ft | 343 kts | 208° |
| 2026-05-07 17:12 | 49.08974 | 12.56198 | 19414 ft | 341 kts | 208° |
| 2026-05-07 17:12 | 49.06826 | 12.54667 | 18985 ft | 340 kts | 208° |
| 2026-05-07 17:12 | 49.04677 | 12.53138 | 18538 ft | 339 kts | 208° |
| 2026-05-07 17:12 | 49.02545 | 12.51621 | 18105 ft | 337 kts | 208° |
| 2026-05-07 17:13 | 49.00443 | 12.50121 | 17819 ft | 330 kts | 208° |
| 2026-05-07 17:13 | 48.98378 | 12.48643 | 17438 ft | 327 kts | 208° |
| 2026-05-07 17:13 | 48.96316 | 12.47168 | 16836 ft | 330 kts | 208° |
| 2026-05-07 17:13 | 48.94247 | 12.45687 | 16512 ft | 325 kts | 208° |
| 2026-05-07 17:14 | 48.92194 | 12.44219 | 15996 ft | 327 kts | 208° |
| 2026-05-07 17:14 | 48.90161 | 12.42767 | 15767 ft | 320 kts | 208° |
| 2026-05-07 17:14 | 48.88159 | 12.41340 | 15440 ft | 316 kts | 208° |
| 2026-05-07 17:14 | 48.86172 | 12.39928 | 15079 ft | 314 kts | 208° |
| 2026-05-07 17:15 | 48.84197 | 12.38529 | 14727 ft | 312 kts | 208° |
| 2026-05-07 17:15 | 48.82238 | 12.37143 | 14395 ft | 310 kts | 208° |
| 2026-05-07 17:15 | 48.80291 | 12.35764 | 14059 ft | 308 kts | 208° |
| 2026-05-07 17:15 | 48.78301 | 12.34586 | 13708 ft | 309 kts | 198° |
| 2026-05-07 17:16 | 48.76219 | 12.33788 | 13319 ft | 307 kts | 198° |
| 2026-05-07 17:16 | 48.74154 | 12.32994 | 12949 ft | 305 kts | 198° |
| 2026-05-07 17:16 | 48.72104 | 12.32202 | 12584 ft | 303 kts | 198° |
| 2026-05-07 17:16 | 48.70014 | 12.31796 | 12210 ft | 307 kts | 179° |
| 2026-05-07 17:17 | 48.67921 | 12.32533 | 11825 ft | 310 kts | 166° |
| 2026-05-07 17:17 | 48.65876 | 12.33570 | 11434 ft | 309 kts | 165° |
| 2026-05-07 17:17 | 48.63846 | 12.34625 | 11060 ft | 308 kts | 165° |
| 2026-05-07 17:17 | 48.61830 | 12.35679 | 10729 ft | 305 kts | 165° |
| 2026-05-07 17:18 | 48.59860 | 12.36716 | 10564 ft | 295 kts | 165° |
| 2026-05-07 17:18 | 48.57888 | 12.37238 | 10271 ft | 283 kts | 187° |
| 2026-05-07 17:18 | 48.56010 | 12.36570 | 9933 ft | 276 kts | 203° |
| 2026-05-07 17:18 | 48.54212 | 12.35562 | 9541 ft | 275 kts | 204° |
| 2026-05-07 17:19 | 48.52430 | 12.34524 | 9141 ft | 274 kts | 205° |
| 2026-05-07 17:19 | 48.50655 | 12.33487 | 8744 ft | 273 kts | 205° |
| 2026-05-07 17:19 | 48.48892 | 12.32451 | 8344 ft | 272 kts | 205° |
| 2026-05-07 17:19 | 48.47131 | 12.31413 | 7953 ft | 270 kts | 205° |
| 2026-05-07 17:20 | 48.45397 | 12.30355 | 7563 ft | 268 kts | 210° |
| 2026-05-07 17:20 | 48.43981 | 12.28622 | 7166 ft | 261 kts | 231° |
| 2026-05-07 17:20 | 48.42845 | 12.26498 | 6755 ft | 261 kts | 234° |
| 2026-05-07 17:20 | 48.41743 | 12.24331 | 6298 ft | 261 kts | 234° |
| 2026-05-07 17:21 | 48.40657 | 12.22174 | 6008 ft | 255 kts | 234° |
| 2026-05-07 17:21 | 48.39693 | 12.19990 | 5739 ft | 246 kts | 248° |
| 2026-05-07 17:21 | 48.39316 | 12.17537 | 5496 ft | 238 kts | 264° |
| 2026-05-07 17:21 | 48.39142 | 12.15083 | 5245 ft | 233 kts | 264° |
| 2026-05-07 17:22 | 48.38973 | 12.12725 | 5052 ft | 225 kts | 264° |
| 2026-05-07 17:22 | 48.38806 | 12.10445 | 4992 ft | 213 kts | 264° |
| 2026-05-07 17:22 | 48.38647 | 12.08281 | 4882 ft | 205 kts | 265° |
| 2026-05-07 17:22 | 48.38490 | 12.06150 | 4647 ft | 205 kts | 265° |
| 2026-05-07 17:23 | 48.38332 | 12.04019 | 4377 ft | 205 kts | 265° |
| 2026-05-07 17:23 | 48.38174 | 12.01898 | 4100 ft | 201 kts | 265° |
| 2026-05-07 17:23 | 48.38020 | 11.99838 | 3857 ft | 193 kts | 265° |
| 2026-05-07 17:23 | 48.37875 | 11.97898 | 3590 ft | 180 kts | 265° |
| 2026-05-07 17:24 | 48.37740 | 11.96101 | 3355 ft | 167 kts | 265° |
| 2026-05-07 17:24 | 48.37614 | 11.94411 | 3148 ft | 157 kts | 266° |
| 2026-05-07 17:24 | 48.37495 | 11.92830 | 2943 ft | 147 kts | 266° |
| 2026-05-07 17:24 | 48.37384 | 11.91349 | 2745 ft | 139 kts | 265° |
| 2026-05-07 17:25 | 48.37276 | 11.89912 | 2551 ft | 138 kts | 266° |
| 2026-05-07 17:25 | 48.37168 | 11.88487 | 2352 ft | 137 kts | 267° |
| 2026-05-07 17:25 | 48.37060 | 11.87049 | 2161 ft | 141 kts | 265° |
| 2026-05-07 17:25 | 48.36948 | 11.85569 | 1955 ft | 142 kts | 266° |
| 2026-05-07 17:26 | 48.36835 | 11.84083 | 1772 ft | 142 kts | 267° |
| 2026-05-07 17:26 | 48.36726 | 11.82614 | 1582 ft | 141 kts | 267° |
| 2026-05-07 17:26 | 48.36622 | 11.81207 | 1479 ft | 123 kts | 263° |
| 2026-05-07 17:26 | 48.36540 | 11.80180 | 1485 ft | 65 kts | 263° |
| 2026-05-07 17:27 | 48.36460 | 11.79729 | 1471 ft | 39 kts | 238° |
| 2026-05-07 17:27 | 48.36316 | 11.79432 | 1476 ft | 30 kts | 232° |
| 2026-05-07 17:27 | 48.36206 | 11.79296 | 1485 ft | 18 kts | 185° |
| 2026-05-07 17:27 | 48.36091 | 11.79315 | 1485 ft | 15 kts | 173° |
| 2026-05-07 17:28 | 48.36001 | 11.79332 | 1477 ft | 11 kts | 173° |
| 2026-05-07 17:28 | 48.35930 | 11.79348 | 1475 ft | 10 kts | 163° |
| 2026-05-07 17:28 | 48.35871 | 11.79381 | 1477 ft | 9 kts | 172° |
| 2026-05-07 17:28 | 48.35790 | 11.79396 | 1485 ft | 13 kts | 173° |
| 2026-05-07 17:29 | 48.35702 | 11.79411 | 1480 ft | 12 kts | 173° |
| 2026-05-07 17:29 | 48.35622 | 11.79424 | 1483 ft | 11 kts | 173° |
| 2026-05-07 17:29 | 48.35551 | 11.79437 | 1479 ft | 10 kts | 173° |
| 2026-05-07 17:29 | 48.35481 | 11.79449 | 1485 ft | 9 kts | 175° |
| 2026-05-07 17:30 | 48.35457 | 11.79411 | 1482 ft | 5 kts | 261° |
| 2026-05-07 17:30 | 48.35453 | 11.79360 | 1485 ft | 5 kts | 264° |
| 2026-05-07 17:30 | 48.35450 | 11.79318 | 1483 ft | 1 kts | 263° |
| 2026-05-07 17:30 | 48.35450 | 11.79313 | 1482 ft | 0 kts | 263° |